Time,TemperatureF,DewpointF,PressureIn,WindDirection,WindDirectionDegrees,WindSpeedMPH,WindSpeedGustMPH,Humidity,HourlyPrecipIn,Conditions,Clouds,dailyrainin,SolarRadiationWatts/m^2,SoftwareType,DateUTC
2013-01-12 00:15:00,31.5,30.0,30.24,SSE,163,0.0,-999.0,94,-99.99,,,0.01,0,weatherlink.com 1.10,2013-01-12 05:15:00,
2013-01-12 00:30:00,31.6,30.0,30.23,SSE,163,0.0,-999.0,94,-99.99,,,0.02,0,weatherlink.com 1.10,2013-01-12 05:30:00,
2013-01-12 00:45:00,31.5,30.0,30.21,SSE,163,0.0,-999.0,94,-99.99,,,0.02,0,weatherlink.com 1.10,2013-01-12 05:45:00,
2013-01-12 01:00:00,31.5,30.0,30.21,SSE,163,0.0,-999.0,95,-99.99,,,0.02,0,weatherlink.com 1.10,2013-01-12 06:00:00,
2013-01-12 01:15:00,32.2,31.0,30.22,SSE,164,0.0,-999.0,95,-99.99,,,0.02,0,weatherlink.com 1.10,2013-01-12 06:15:00,
2013-01-12 01:30:00,32.1,31.0,30.22,SSE,164,0.0,-999.0,95,-99.99,,,0.02,0,weatherlink.com 1.10,2013-01-12 06:30:00,
2013-01-12 01:45:00,32.0,31.0,30.22,SSE,164,0.0,-999.0,95,-99.99,,,0.02,0,weatherlink.com 1.10,2013-01-12 06:45:00,
2013-01-12 02:00:00,32.1,31.0,30.22,SW,217,2.0,-999.0,96,-99.99,,,0.02,0,weatherlink.com 1.10,2013-01-12 07:00:00,
2013-01-12 02:15:00,32.1,31.0,30.22,SW,223,0.0,-999.0,96,-99.99,,,0.02,0,weatherlink.com 1.10,2013-01-12 07:15:00,
2013-01-12 02:30:00,32.3,31.0,30.21,SW,224,0.0,-999.0,96,-99.99,,,0.03,0,weatherlink.com 1.10,2013-01-12 07:30:00,
2013-01-12 02:45:00,32.2,31.0,30.20,SW,224,0.0,-999.0,96,-99.99,,,0.03,0,weatherlink.com 1.10,2013-01-12 07:45:00,
2013-01-12 03:00:00,32.1,31.0,30.20,SW,224,1.0,-999.0,96,-99.99,,,0.04,0,weatherlink.com 1.10,2013-01-12 08:00:00,
2013-01-12 03:15:00,31.9,31.0,30.19,SW,224,0.0,-999.0,96,-99.99,,,0.04,0,weatherlink.com 1.10,2013-01-12 08:15:00,
2013-01-12 03:30:00,31.7,31.0,30.18,WSW,256,4.0,-999.0,96,-99.99,,,0.04,0,weatherlink.com 1.10,2013-01-12 08:30:00,
2013-01-12 03:45:00,32.0,31.0,30.19,WSW,257,0.0,-999.0,96,-99.99,,,0.04,0,weatherlink.com 1.10,2013-01-12 08:45:00,
2013-01-12 04:00:00,32.3,31.0,30.18,WSW,257,0.0,-999.0,96,-99.99,,,0.04,0,weatherlink.com 1.10,2013-01-12 09:00:00,
2013-01-12 04:15:00,32.2,31.0,30.18,WSW,258,2.0,-999.0,96,-99.99,,,0.04,0,weatherlink.com 1.10,2013-01-12 09:15:00,
2013-01-12 04:30:00,32.1,31.0,30.18,West,262,0.0,-999.0,96,-99.99,,,0.05,0,weatherlink.com 1.10,2013-01-12 09:30:00,
2013-01-12 04:45:00,32.3,31.0,30.18,West,263,0.0,-999.0,96,-99.99,,,0.05,0,weatherlink.com 1.10,2013-01-12 09:45:00,
2013-01-12 05:00:00,32.4,32.0,30.18,West,263,0.0,-999.0,97,-99.99,,,0.06,0,weatherlink.com 1.10,2013-01-12 10:00:00,
2013-01-12 05:15:00,32.3,31.0,30.18,West,263,0.0,-999.0,96,-99.99,,,0.06,0,weatherlink.com 1.10,2013-01-12 10:15:00,
2013-01-12 05:30:00,32.3,31.0,30.18,West,265,0.0,-999.0,96,-99.99,,,0.06,0,weatherlink.com 1.10,2013-01-12 10:30:00,
2013-01-12 05:45:00,32.1,31.0,30.17,West,265,0.0,-999.0,97,-99.99,,,0.06,0,weatherlink.com 1.10,2013-01-12 10:45:00,
2013-01-12 06:00:00,32.6,32.0,30.16,West,265,0.0,-999.0,97,-99.99,,,0.06,0,weatherlink.com 1.10,2013-01-12 11:00:00,
2013-01-12 06:15:00,32.4,31.0,30.18,West,265,0.0,-999.0,96,-99.99,,,0.06,0,weatherlink.com 1.10,2013-01-12 11:15:00,
2013-01-12 06:30:00,32.2,32.0,30.17,West,267,1.0,-999.0,97,-99.99,,,0.07,0,weatherlink.com 1.10,2013-01-12 11:30:00,
2013-01-12 06:45:00,32.1,31.0,30.17,West,268,0.0,-999.0,97,-99.99,,,0.07,0,weatherlink.com 1.10,2013-01-12 11:45:00,
2013-01-12 07:00:00,32.2,32.0,30.17,West,268,0.0,-999.0,97,-99.99,,,0.07,0,weatherlink.com 1.10,2013-01-12 12:00:00,
2013-01-12 07:15:00,32.1,31.0,30.16,West,268,0.0,-999.0,97,-99.99,,,0.07,0,weatherlink.com 1.10,2013-01-12 12:15:00,
2013-01-12 07:30:00,32.0,31.0,30.19,WNW,292,1.0,-999.0,97,-99.99,,,0.07,5,weatherlink.com 1.10,2013-01-12 12:30:00,
2013-01-12 07:45:00,32.2,32.0,30.20,WNW,294,3.0,-999.0,97,-99.99,,,0.07,7,weatherlink.com 1.10,2013-01-12 12:45:00,
2013-01-12 08:00:00,32.6,32.0,30.19,WNW,295,0.0,-999.0,97,-99.99,,,0.07,9,weatherlink.com 1.10,2013-01-12 13:00:00,
2013-01-12 08:15:00,32.4,32.0,30.19,WNW,298,0.0,-999.0,97,-99.99,,,0.07,25,weatherlink.com 1.10,2013-01-12 13:15:00,
2013-01-12 08:30:00,32.5,32.0,30.19,WNW,298,0.0,-999.0,97,-99.99,,,0.07,33,weatherlink.com 1.10,2013-01-12 13:30:00,
2013-01-12 08:45:00,32.7,32.0,30.18,WNW,298,0.0,-999.0,97,-99.99,,,0.07,47,weatherlink.com 1.10,2013-01-12 13:45:00,
2013-01-12 09:00:00,32.9,32.0,30.19,WNW,298,0.0,-999.0,97,-99.99,,,0.07,40,weatherlink.com 1.10,2013-01-12 14:00:00,
2013-01-12 09:15:00,33.2,33.0,30.19,WNW,298,0.0,-999.0,97,-99.99,,,0.07,49,weatherlink.com 1.10,2013-01-12 14:15:00,
2013-01-12 09:30:00,33.5,33.0,30.20,WNW,298,0.0,-999.0,97,-99.99,,,0.07,40,weatherlink.com 1.10,2013-01-12 14:30:00,
2013-01-12 09:45:00,33.6,33.0,30.19,WNW,298,0.0,-999.0,97,-99.99,,,0.07,53,weatherlink.com 1.10,2013-01-12 14:45:00,
2013-01-12 10:00:00,33.7,33.0,30.19,WNW,298,2.0,-999.0,97,-99.99,,,0.08,60,weatherlink.com 1.10,2013-01-12 15:00:00,
2013-01-12 10:15:00,33.7,33.0,30.18,WNW,298,0.0,-999.0,97,-99.99,,,0.08,84,weatherlink.com 1.10,2013-01-12 15:15:00,
2013-01-12 10:30:00,33.8,33.0,30.17,WNW,298,1.0,-999.0,97,-99.99,,,0.08,120,weatherlink.com 1.10,2013-01-12 15:30:00,
2013-01-12 10:45:00,34.2,34.0,30.17,WNW,298,0.0,-999.0,97,-99.99,,,0.08,162,weatherlink.com 1.10,2013-01-12 15:45:00,
2013-01-12 11:00:00,34.4,34.0,30.16,WNW,298,2.0,-999.0,97,-99.99,,,0.08,183,weatherlink.com 1.10,2013-01-12 16:00:00,
2013-01-12 11:15:00,35.2,35.0,30.15,WNW,298,0.0,-999.0,97,-99.99,,,0.08,223,weatherlink.com 1.10,2013-01-12 16:15:00,
2013-01-12 11:30:00,36.1,35.0,30.15,WNW,298,0.0,-999.0,97,-99.99,,,0.08,192,weatherlink.com 1.10,2013-01-12 16:30:00,
2013-01-12 11:45:00,36.4,36.0,30.14,WNW,298,0.0,-999.0,97,-99.99,,,0.08,151,weatherlink.com 1.10,2013-01-12 16:45:00,
2013-01-12 12:00:00,36.8,36.0,30.14,WNW,298,0.0,-999.0,97,-99.99,,,0.08,142,weatherlink.com 1.10,2013-01-12 17:00:00,
2013-01-12 12:15:00,37.6,37.0,30.12,SSW,196,0.0,-999.0,98,-99.99,,,0.08,176,weatherlink.com 1.10,2013-01-12 17:15:00,
2013-01-12 12:30:00,37.7,37.0,30.12,SSW,196,1.0,-999.0,98,-99.99,,,0.08,127,weatherlink.com 1.10,2013-01-12 17:30:00,
2013-01-12 12:45:00,38.0,37.0,30.12,SSW,196,0.0,-999.0,97,-99.99,,,0.08,91,weatherlink.com 1.10,2013-01-12 17:45:00,
2013-01-12 13:00:00,38.3,38.0,30.12,SSW,196,0.0,-999.0,98,-99.99,,,0.08,97,weatherlink.com 1.10,2013-01-12 18:00:00,
2013-01-12 13:15:00,38.7,38.0,30.12,SSW,192,2.0,-999.0,97,-99.99,,,0.08,98,weatherlink.com 1.10,2013-01-12 18:15:00,
2013-01-12 13:30:00,39.2,39.0,30.13,SSW,203,5.0,-999.0,97,-99.99,,,0.08,97,weatherlink.com 1.10,2013-01-12 18:30:00,
2013-01-12 13:45:00,39.3,39.0,30.14,SSW,205,0.0,-999.0,98,-99.99,,,0.08,70,weatherlink.com 1.10,2013-01-12 18:45:00,
2013-01-12 14:00:00,39.3,39.0,30.14,SSW,200,2.0,-999.0,98,-99.99,,,0.08,91,weatherlink.com 1.10,2013-01-12 19:00:00,
2013-01-12 14:15:00,39.1,38.0,30.14,South,179,2.0,-999.0,97,-99.99,,,0.08,62,weatherlink.com 1.10,2013-01-12 19:15:00,
2013-01-12 14:30:00,39.2,39.0,30.14,South,190,5.0,-999.0,97,-99.99,,,0.08,54,weatherlink.com 1.10,2013-01-12 19:30:00,
2013-01-12 14:45:00,39.2,39.0,30.15,South,190,0.0,-999.0,97,-99.99,,,0.08,51,weatherlink.com 1.10,2013-01-12 19:45:00,
2013-01-12 15:00:00,39.2,39.0,30.13,South,172,4.0,-999.0,97,-99.99,,,0.08,49,weatherlink.com 1.10,2013-01-12 20:00:00,
2013-01-12 15:15:00,39.2,39.0,30.13,South,170,4.0,-999.0,97,-99.99,,,0.08,40,weatherlink.com 1.10,2013-01-12 20:15:00,
2013-01-12 15:30:00,39.3,39.0,30.13,South,170,6.0,-999.0,97,-99.99,,,0.08,65,weatherlink.com 1.10,2013-01-12 20:30:00,
2013-01-12 15:45:00,39.4,39.0,30.14,South,169,1.0,-999.0,97,-99.99,,,0.08,21,weatherlink.com 1.10,2013-01-12 20:45:00,
2013-01-12 16:00:00,39.4,39.0,30.13,SSE,167,4.0,-999.0,97,-99.99,,,0.08,9,weatherlink.com 1.10,2013-01-12 21:00:00,
2013-01-12 16:15:00,39.2,39.0,30.14,SSE,167,0.0,-999.0,97,-99.99,,,0.08,0,weatherlink.com 1.10,2013-01-12 21:15:00,
2013-01-12 16:30:00,39.2,39.0,30.14,SSE,167,4.0,-999.0,98,-99.99,,,0.08,0,weatherlink.com 1.10,2013-01-12 21:30:00,
2013-01-12 16:45:00,39.2,39.0,30.14,SSE,161,0.0,-999.0,98,-99.99,,,0.08,0,weatherlink.com 1.10,2013-01-12 21:45:00,
2013-01-12 17:00:00,38.8,38.0,30.13,SSE,159,5.0,-999.0,98,-99.99,,,0.08,0,weatherlink.com 1.10,2013-01-12 22:00:00,
2013-01-12 17:15:00,38.7,38.0,30.13,SSE,157,0.0,-999.0,97,-99.99,,,0.08,0,weatherlink.com 1.10,2013-01-12 22:15:00,
2013-01-12 17:30:00,39.0,39.0,30.13,South,184,4.0,-999.0,98,-99.99,,,0.08,0,weatherlink.com 1.10,2013-01-12 22:30:00,
2013-01-12 17:45:00,39.0,39.0,30.14,SSW,211,0.0,-999.0,98,-99.99,,,0.08,0,weatherlink.com 1.10,2013-01-12 22:45:00,
2013-01-12 18:00:00,39.0,39.0,30.13,SSW,207,1.0,-999.0,98,-99.99,,,0.08,0,weatherlink.com 1.10,2013-01-12 23:00:00,
2013-01-12 18:15:00,39.1,39.0,30.13,SSW,196,0.0,-999.0,98,-99.99,,,0.08,0,weatherlink.com 1.10,2013-01-12 23:15:00,
2013-01-12 18:30:00,39.1,39.0,30.13,South,184,0.0,-999.0,98,-99.99,,,0.08,0,weatherlink.com 1.10,2013-01-12 23:30:00,
2013-01-12 18:45:00,39.0,39.0,30.12,SSW,206,0.0,-999.0,98,-99.99,,,0.08,0,weatherlink.com 1.10,2013-01-12 23:45:00,
2013-01-12 19:00:00,39.0,39.0,30.12,SSW,192,6.0,-999.0,98,-99.99,,,0.08,0,weatherlink.com 1.10,2013-01-13 00:00:00,
2013-01-12 19:15:00,38.9,38.0,30.11,SSW,193,2.0,-999.0,98,-99.99,,,0.08,0,weatherlink.com 1.10,2013-01-13 00:15:00,
2013-01-12 19:30:00,38.9,38.0,30.12,SSW,199,0.0,-999.0,98,-99.99,,,0.08,0,weatherlink.com 1.10,2013-01-13 00:30:00,
2013-01-12 19:45:00,39.1,39.0,30.11,SSW,210,2.0,-999.0,98,-99.99,,,0.08,0,weatherlink.com 1.10,2013-01-13 00:45:00,
2013-01-12 20:00:00,39.5,39.0,30.12,SSW,206,4.0,-999.0,98,-99.99,,,0.08,0,weatherlink.com 1.10,2013-01-13 01:00:00,
2013-01-12 20:15:00,39.2,39.0,30.11,South,187,2.0,-999.0,98,-99.99,,,0.08,0,weatherlink.com 1.10,2013-01-13 01:15:00,
2013-01-12 20:30:00,39.0,39.0,30.11,SSW,202,1.0,-999.0,98,-99.99,,,0.08,0,weatherlink.com 1.10,2013-01-13 01:30:00,
2013-01-12 20:45:00,38.9,38.0,30.11,South,180,5.0,-999.0,98,-99.99,,,0.08,0,weatherlink.com 1.10,2013-01-13 01:45:00,
2013-01-12 21:00:00,38.8,38.0,30.11,South,179,3.0,-999.0,98,-99.99,,,0.08,0,weatherlink.com 1.10,2013-01-13 02:00:00,
2013-01-12 21:15:00,38.9,38.0,30.11,SSE,168,6.0,-999.0,98,-99.99,,,0.08,0,weatherlink.com 1.10,2013-01-13 02:15:00,
2013-01-12 21:30:00,38.6,38.0,30.10,SSE,164,3.0,-999.0,98,-99.99,,,0.08,0,weatherlink.com 1.10,2013-01-13 02:30:00,
2013-01-12 21:45:00,38.4,38.0,30.10,SSE,164,0.0,-999.0,98,-99.99,,,0.08,0,weatherlink.com 1.10,2013-01-13 02:45:00,
2013-01-12 22:00:00,38.7,38.0,30.10,SSE,164,0.0,-999.0,98,-99.99,,,0.08,0,weatherlink.com 1.10,2013-01-13 03:00:00,
2013-01-12 22:15:00,38.6,38.0,30.09,SSE,164,0.0,-999.0,98,-99.99,,,0.08,0,weatherlink.com 1.10,2013-01-13 03:15:00,
2013-01-12 22:30:00,38.7,38.0,30.09,SSE,164,0.0,-999.0,98,-99.99,,,0.08,0,weatherlink.com 1.10,2013-01-13 03:30:00,
2013-01-12 22:45:00,38.7,38.0,30.10,SSE,164,0.0,-999.0,98,-99.99,,,0.08,0,weatherlink.com 1.10,2013-01-13 03:45:00,
2013-01-12 23:00:00,38.7,38.0,30.10,SW,214,0.0,-999.0,98,-99.99,,,0.08,0,weatherlink.com 1.10,2013-01-13 04:00:00,
2013-01-12 23:15:00,38.6,38.0,30.09,SW,217,0.0,-999.0,98,-99.99,,,0.08,0,weatherlink.com 1.10,2013-01-13 04:15:00,
2013-01-12 23:30:00,38.5,38.0,30.09,SW,217,0.0,-999.0,98,-99.99,,,0.08,0,weatherlink.com 1.10,2013-01-13 04:30:00,
2013-01-12 23:45:00,38.4,38.0,30.11,SW,217,0.0,-999.0,98,-99.99,,,0.08,0,weatherlink.com 1.10,2013-01-13 04:45:00,